Derby Line, Vermont
Current Conditions -  °F | °C
As of 11:15 AM on Monday 26 Jan 2015 (Local Time) from KEFK Reporting Station
Clear Clear  
Wind Chill: -4°   Ceiling: Unl
Heat Index: -4°   Visibility: 10mi
Dew Point: -10°   Wind: 3mph
Humidity: 77%   Direction: 20°NNE
Pressure: 30.14"   Gusts: NA
Location:  45°N, 72.1°W
Report Text: KEFK 261615Z AUTO 02003KT 10SM CLR M20/M23 A3014 RMK AO2 T12001231
Loading
Personal Weather Stations






























Interactive Weather Map New forecast layout! Learn more

10-Day Weather Forecast

Advertisements
Track Severe Weather on mobile